Archival Weather

Al Ahsa

Al Ahsa, Saudi Arabia (OEAH)

Report from: Friday, May 26, 2023 11:00 PM +03
Current time: Monday, July 22, 2024 2:00 PM +03

Current weather – Weather history – Daily summaries
Weather forecast

Temperature32.0°C (89.6°F)
Heat index32.4°C (90.4°F)
Dew point17.0°C (62.6°F)
Winds 4 kts (2.1 m/s, 4.6 mph) East-Northeast (60°)
Clouds Sky clear
Altimeter29.77 in.Hg (1008 mB)
Relative humidity41 %
Density altitude2,382 ft. (726 m)
Remarks Ceiling and visibility OK
No significant changes expected in the next two hours
Flight conditions Visual Meteorological Conditions
Raw dataOEAH 262000Z 06004KT CAVOK 32/17 Q1008 NOSIG
An error has occurred. This application may no longer respond until reloaded. Reload 🗙